sensor_id;sensor_type;location;lat;lon;timestamp;pressure;altitude;pressure_sealevel;temperature;humidity
1472;BME280;963;42.644;23.336;2023-06-10T00:01:23;93818.66;;;19.56;96.10
1472;BME280;963;42.644;23.336;2023-06-10T00:03:50;93825.59;;;19.54;96.19
1472;BME280;963;42.644;23.336;2023-06-10T00:06:15;93811.81;;;19.55;96.48
1472;BME280;963;42.644;23.336;2023-06-10T00:08:41;93817.22;;;19.52;96.78
1472;BME280;963;42.644;23.336;2023-06-10T00:11:06;93827.50;;;19.53;96.11
1472;BME280;963;42.644;23.336;2023-06-10T00:13:31;93827.06;;;19.55;94.18
1472;BME280;963;42.644;23.336;2023-06-10T00:15:57;93824.47;;;19.51;92.04
1472;BME280;963;42.644;23.336;2023-06-10T00:18:22;93827.66;;;19.46;91.19
1472;BME280;963;42.644;23.336;2023-06-10T00:20:48;93822.66;;;19.48;90.58
1472;BME280;963;42.644;23.336;2023-06-10T00:23:18;93853.34;;;19.40;89.90
1472;BME280;963;42.644;23.336;2023-06-10T00:25:43;93819.34;;;19.44;89.56
1472;BME280;963;42.644;23.336;2023-06-10T00:28:09;93806.19;;;19.37;89.77
1472;BME280;963;42.644;23.336;2023-06-10T00:30:34;93816.00;;;19.40;89.75
1472;BME280;963;42.644;23.336;2023-06-10T00:32:59;93815.78;;;19.34;90.46
1472;BME280;963;42.644;23.336;2023-06-10T00:35:25;93824.53;;;19.35;91.00
1472;BME280;963;42.644;23.336;2023-06-10T00:37:50;93833.75;;;19.30;90.61
1472;BME280;963;42.644;23.336;2023-06-10T00:40:16;93816.25;;;19.29;90.76
1472;BME280;963;42.644;23.336;2023-06-10T00:42:41;93820.19;;;19.25;91.10
1472;BME280;963;42.644;23.336;2023-06-10T00:45:07;93816.19;;;19.17;89.62
1472;BME280;963;42.644;23.336;2023-06-10T00:47:33;93839.94;;;19.27;88.64
1472;BME280;963;42.644;23.336;2023-06-10T00:50:00;93836.50;;;19.27;88.53
1472;BME280;963;42.644;23.336;2023-06-10T00:52:28;93836.50;;;19.27;88.64
1472;BME280;963;42.644;23.336;2023-06-10T00:54:55;93822.09;;;19.24;88.29
1472;BME280;963;42.644;23.336;2023-06-10T00:57:21;93811.94;;;19.19;88.12
1472;BME280;963;42.644;23.336;2023-06-10T00:59:49;93830.47;;;19.10;88.68
1472;BME280;963;42.644;23.336;2023-06-10T01:02:14;93817.97;;;19.07;89.80
1472;BME280;963;42.644;23.336;2023-06-10T01:04:40;93820.72;;;19.03;89.92
1472;BME280;963;42.644;23.336;2023-06-10T01:07:14;93828.72;;;19.03;91.07
1472;BME280;963;42.644;23.336;2023-06-10T01:12:29;93826.88;;;18.84;93.02
1472;BME280;963;42.644;23.336;2023-06-10T01:14:56;93819.22;;;18.86;91.92
1472;BME280;963;42.644;23.336;2023-06-10T01:17:23;93827.72;;;18.97;91.61
1472;BME280;963;42.644;23.336;2023-06-10T01:19:56;93856.56;;;19.02;91.59
1472;BME280;963;42.644;23.336;2023-06-10T01:22:25;93848.03;;;19.08;91.17
1472;BME280;963;42.644;23.336;2023-06-10T01:24:55;93844.53;;;19.11;90.65
1472;BME280;963;42.644;23.336;2023-06-10T01:27:26;93822.56;;;19.07;90.66
1472;BME280;963;42.644;23.336;2023-06-10T01:30:09;93843.38;;;19.12;91.51
1472;BME280;963;42.644;23.336;2023-06-10T01:32:45;93832.72;;;19.12;91.32
1472;BME280;963;42.644;23.336;2023-06-10T01:35:14;93824.06;;;19.08;90.97
1472;BME280;963;42.644;23.336;2023-06-10T01:37:41;93844.22;;;19.09;91.92
1472;BME280;963;42.644;23.336;2023-06-10T01:40:08;93824.06;;;19.08;91.89
1472;BME280;963;42.644;23.336;2023-06-10T01:42:34;93828.63;;;19.07;92.26
1472;BME280;963;42.644;23.336;2023-06-10T01:45:00;93829.38;;;19.08;91.75
1472;BME280;963;42.644;23.336;2023-06-10T01:47:26;93808.72;;;18.95;91.37
1472;BME280;963;42.644;23.336;2023-06-10T01:49:51;93823.06;;;19.01;90.57
1472;BME280;963;42.644;23.336;2023-06-10T01:52:17;93826.38;;;19.05;90.93
1472;BME280;963;42.644;23.336;2023-06-10T01:54:43;93823.72;;;19.05;90.74
1472;BME280;963;42.644;23.336;2023-06-10T01:57:08;93825.63;;;19.05;90.92
1472;BME280;963;42.644;23.336;2023-06-10T01:59:33;93814.56;;;19.07;90.83
1472;BME280;963;42.644;23.336;2023-06-10T02:01:59;93816.06;;;19.08;90.61
1472;BME280;963;42.644;23.336;2023-06-10T02:04:25;93817.66;;;19.05;90.45
1472;BME280;963;42.644;23.336;2023-06-10T02:06:50;93818.38;;;18.89;91.52
1472;BME280;963;42.644;23.336;2023-06-10T02:09:15;93828.78;;;18.84;91.92
1472;BME280;963;42.644;23.336;2023-06-10T02:11:41;93803.06;;;18.77;92.14
1472;BME280;963;42.644;23.336;2023-06-10T02:14:06;93816.31;;;18.64;93.23
1472;BME280;963;42.644;23.336;2023-06-10T02:16:32;93805.84;;;18.37;94.87
1472;BME280;963;42.644;23.336;2023-06-10T02:18:57;93798.69;;;18.34;95.16
1472;BME280;963;42.644;23.336;2023-06-10T02:21:23;93803.09;;;18.25;95.88
1472;BME280;963;42.644;23.336;2023-06-10T02:23:48;93795.53;;;18.03;96.97
1472;BME280;963;42.644;23.336;2023-06-10T02:26:13;93812.56;;;18.26;95.43
1472;BME280;963;42.644;23.336;2023-06-10T02:28:42;93805.19;;;18.50;93.08
1472;BME280;963;42.644;23.336;2023-06-10T02:31:08;93789.38;;;18.42;91.73
1472;BME280;963;42.644;23.336;2023-06-10T02:33:33;93776.56;;;18.37;91.14
1472;BME280;963;42.644;23.336;2023-06-10T02:35:59;93795.53;;;18.39;91.49
1472;BME280;963;42.644;23.336;2023-06-10T02:38:24;93777.06;;;18.49;90.21
1472;BME280;963;42.644;23.336;2023-06-10T02:40:50;93799.09;;;18.49;90.43
1472;BME280;963;42.644;23.336;2023-06-10T02:43:15;93792.38;;;18.44;90.02
1472;BME280;963;42.644;23.336;2023-06-10T02:45:40;93780.38;;;18.36;90.62
1472;BME280;963;42.644;23.336;2023-06-10T02:48:06;93780.78;;;18.51;89.38
1472;BME280;963;42.644;23.336;2023-06-10T02:50:31;93788.97;;;18.60;88.24
1472;BME280;963;42.644;23.336;2023-06-10T02:52:56;93778.50;;;18.69;87.45
1472;BME280;963;42.644;23.336;2023-06-10T02:55:22;93780.09;;;18.67;87.25
1472;BME280;963;42.644;23.336;2023-06-10T02:57:51;93771.28;;;18.70;87.10
1472;BME280;963;42.644;23.336;2023-06-10T03:00:17;93769.41;;;18.83;87.61
1472;BME280;963;42.644;23.336;2023-06-10T03:02:45;93776.16;;;18.88;87.31
1472;BME280;963;42.644;23.336;2023-06-10T03:05:11;93765.81;;;18.90;86.72
1472;BME280;963;42.644;23.336;2023-06-10T03:07:38;93772.25;;;18.92;86.44
1472;BME280;963;42.644;23.336;2023-06-10T03:10:05;93776.06;;;18.91;86.33
1472;BME280;963;42.644;23.336;2023-06-10T03:12:31;93790.84;;;18.96;86.58
1472;BME280;963;42.644;23.336;2023-06-10T03:14:56;93777.84;;;18.98;87.69
1472;BME280;963;42.644;23.336;2023-06-10T03:17:22;93777.00;;;19.01;88.93
1472;BME280;963;42.644;23.336;2023-06-10T03:19:47;93783.41;;;19.03;89.03
1472;BME280;963;42.644;23.336;2023-06-10T03:22:14;93792.06;;;19.08;89.69
1472;BME280;963;42.644;23.336;2023-06-10T03:24:40;93782.66;;;19.03;92.10
1472;BME280;963;42.644;23.336;2023-06-10T03:27:09;93796.66;;;19.07;93.41
1472;BME280;963;42.644;23.336;2023-06-10T03:29:36;93814.47;;;19.10;94.67
1472;BME280;963;42.644;23.336;2023-06-10T03:32:02;93798.06;;;19.12;92.64
1472;BME280;963;42.644;23.336;2023-06-10T03:34:28;93817.03;;;19.14;92.72
1472;BME280;963;42.644;23.336;2023-06-10T03:36:55;93801.38;;;19.16;94.02
1472;BME280;963;42.644;23.336;2023-06-10T03:39:20;93802.53;;;19.15;94.83
1472;BME280;963;42.644;23.336;2023-06-10T03:41:46;93820.47;;;19.14;95.77
1472;BME280;963;42.644;23.336;2023-06-10T03:44:11;93837.88;;;19.19;95.87
1472;BME280;963;42.644;23.336;2023-06-10T03:46:37;93801.47;;;19.12;96.11
1472;BME280;963;42.644;23.336;2023-06-10T03:49:02;93823.88;;;19.15;96.10
1472;BME280;963;42.644;23.336;2023-06-10T03:51:28;93801.03;;;19.14;95.90
1472;BME280;963;42.644;23.336;2023-06-10T03:53:54;93808.19;;;19.17;95.81
1472;BME280;963;42.644;23.336;2023-06-10T03:56:19;93805.53;;;19.17;96.04
1472;BME280;963;42.644;23.336;2023-06-10T03:58:45;93811.72;;;19.14;96.06
1472;BME280;963;42.644;23.336;2023-06-10T04:01:10;93804.88;;;19.13;95.91
1472;BME280;963;42.644;23.336;2023-06-10T04:03:36;93797.91;;;19.02;95.33
1472;BME280;963;42.644;23.336;2023-06-10T04:06:01;93809.97;;;19.07;94.74
1472;BME280;963;42.644;23.336;2023-06-10T04:08:27;93805.47;;;19.04;95.23
1472;BME280;963;42.644;23.336;2023-06-10T04:10:53;93820.56;;;19.11;95.83
1472;BME280;963;42.644;23.336;2023-06-10T04:13:18;93794.72;;;19.08;96.56
1472;BME280;963;42.644;23.336;2023-06-10T04:15:44;93798.47;;;19.10;96.58
1472;BME280;963;42.644;23.336;2023-06-10T04:18:10;93822.72;;;19.16;96.11
1472;BME280;963;42.644;23.336;2023-06-10T04:20:35;93818.44;;;19.18;96.45
1472;BME280;963;42.644;23.336;2023-06-10T04:23:01;93820.19;;;19.25;97.30
1472;BME280;963;42.644;23.336;2023-06-10T04:25:26;93812.19;;;19.25;97.09
1472;BME280;963;42.644;23.336;2023-06-10T04:27:53;93810.69;;;19.24;96.94
1472;BME280;963;42.644;23.336;2023-06-10T04:30:19;93828.09;;;19.28;96.72
1472;BME280;963;42.644;23.336;2023-06-10T04:32:44;93812.31;;;19.05;98.27
1472;BME280;963;42.644;23.336;2023-06-10T04:35:15;93827.19;;;19.19;97.50
1472;BME280;963;42.644;23.336;2023-06-10T04:37:41;93819.94;;;19.19;97.84
1472;BME280;963;42.644;23.336;2023-06-10T04:40:07;93820.81;;;18.84;99.32
1472;BME280;963;42.644;23.336;2023-06-10T04:42:34;93812.09;;;18.11;100.00
1472;BME280;963;42.644;23.336;2023-06-10T04:44:59;93807.53;;;18.11;100.00
1472;BME280;963;42.644;23.336;2023-06-10T04:47:25;93822.81;;;18.43;100.00
1472;BME280;963;42.644;23.336;2023-06-10T04:49:51;93830.16;;;18.56;100.00
1472;BME280;963;42.644;23.336;2023-06-10T04:52:17;93810.34;;;18.57;100.00
1472;BME280;963;42.644;23.336;2023-06-10T04:54:43;93818.34;;;18.57;100.00
1472;BME280;963;42.644;23.336;2023-06-10T04:57:08;93821.69;;;18.61;100.00
1472;BME280;963;42.644;23.336;2023-06-10T04:59:34;93798.34;;;18.49;100.00
1472;BME280;963;42.644;23.336;2023-06-10T05:02:03;93810.56;;;18.66;100.00
1472;BME280;963;42.644;23.336;2023-06-10T05:04:28;93800.91;;;18.72;100.00
1472;BME280;963;42.644;23.336;2023-06-10T05:06:55;93793.66;;;18.72;100.00
1472;BME280;963;42.644;23.336;2023-06-10T05:09:20;93825.72;;;18.85;100.00
1472;BME280;963;42.644;23.336;2023-06-10T05:11:46;93808.91;;;18.72;100.00
1472;BME280;963;42.644;23.336;2023-06-10T05:14:11;93828.22;;;18.76;100.00
1472;BME280;963;42.644;23.336;2023-06-10T05:16:37;93834.38;;;18.73;100.00
1472;BME280;963;42.644;23.336;2023-06-10T05:19:03;93813.97;;;18.66;100.00
1472;BME280;963;42.644;23.336;2023-06-10T05:21:29;93817.41;;;18.67;100.00
1472;BME280;963;42.644;23.336;2023-06-10T05:23:55;93811.25;;;18.70;98.95
1472;BME280;963;42.644;23.336;2023-06-10T05:26:21;93812.16;;;18.80;98.04
1472;BME280;963;42.644;23.336;2023-06-10T05:28:46;93805.31;;;18.79;98.01
1472;BME280;963;42.644;23.336;2023-06-10T05:31:12;93811.22;;;18.86;96.69
1472;BME280;963;42.644;23.336;2023-06-10T05:33:37;93816.56;;;18.86;97.07
1472;BME280;963;42.644;23.336;2023-06-10T05:36:03;93810.72;;;18.91;97.40
1472;BME280;963;42.644;23.336;2023-06-10T05:38:28;93811.38;;;18.95;97.53
1472;BME280;963;42.644;23.336;2023-06-10T05:40:54;93812.72;;;19.03;98.04
1472;BME280;963;42.644;23.336;2023-06-10T05:43:22;93818.88;;;19.17;98.39
1472;BME280;963;42.644;23.336;2023-06-10T05:45:47;93801.88;;;19.11;98.67
1472;BME280;963;42.644;23.336;2023-06-10T05:48:13;93802.03;;;19.20;97.19
1472;BME280;963;42.644;23.336;2023-06-10T05:50:39;93825.69;;;19.34;96.38
1472;BME280;963;42.644;23.336;2023-06-10T05:53:07;93822.09;;;19.41;95.37
1472;BME280;963;42.644;23.336;2023-06-10T05:55:40;93819.00;;;19.42;95.95
1472;BME280;963;42.644;23.336;2023-06-10T05:58:06;93826.75;;;19.53;96.31
1472;BME280;963;42.644;23.336;2023-06-10T06:00:31;93816.56;;;19.48;97.43
1472;BME280;963;42.644;23.336;2023-06-10T06:02:56;93827.63;;;19.62;95.98
1472;BME280;963;42.644;23.336;2023-06-10T06:05:22;93832.03;;;19.69;94.10
1472;BME280;963;42.644;23.336;2023-06-10T06:07:48;93828.53;;;19.72;93.28
1472;BME280;963;42.644;23.336;2023-06-10T06:10:13;93841.78;;;19.76;93.83
1472;BME280;963;42.644;23.336;2023-06-10T06:12:38;93831.97;;;19.73;94.90
1472;BME280;963;42.644;23.336;2023-06-10T06:15:04;93829.09;;;19.80;94.59
1472;BME280;963;42.644;23.336;2023-06-10T06:17:30;93827.41;;;19.86;92.93
1472;BME280;963;42.644;23.336;2023-06-10T06:19:55;93828.38;;;19.92;92.31
1472;BME280;963;42.644;23.336;2023-06-10T06:22:20;93815.88;;;19.89;92.42
1472;BME280;963;42.644;23.336;2023-06-10T06:24:47;93829.56;;;20.04;90.96
1472;BME280;963;42.644;23.336;2023-06-10T06:27:12;93835.47;;;20.11;90.09
1472;BME280;963;42.644;23.336;2023-06-10T06:29:38;93819.13;;;20.09;88.82
1472;BME280;963;42.644;23.336;2023-06-10T06:32:03;93831.09;;;20.17;88.11
1472;BME280;963;42.644;23.336;2023-06-10T06:34:29;93831.06;;;20.05;89.75
1472;BME280;963;42.644;23.336;2023-06-10T06:36:54;93821.88;;;20.06;89.66
1472;BME280;963;42.644;23.336;2023-06-10T06:39:20;93845.75;;;20.25;89.26
1472;BME280;963;42.644;23.336;2023-06-10T06:41:45;93827.47;;;20.24;89.68
1472;BME280;963;42.644;23.336;2023-06-10T06:44:10;93842.56;;;20.30;89.07
1472;BME280;963;42.644;23.336;2023-06-10T06:46:36;93832.50;;;20.35;87.50
1472;BME280;963;42.644;23.336;2023-06-10T06:49:01;93832.81;;;20.37;87.26
1472;BME280;963;42.644;23.336;2023-06-10T06:51:26;93835.50;;;20.37;87.29
1472;BME280;963;42.644;23.336;2023-06-10T06:53:52;93820.13;;;20.41;85.25
1472;BME280;963;42.644;23.336;2023-06-10T06:56:19;93817.59;;;20.50;85.31
1472;BME280;963;42.644;23.336;2023-06-10T06:58:46;93815.69;;;20.50;82.97
1472;BME280;963;42.644;23.336;2023-06-10T07:01:11;93831.81;;;20.59;82.45
1472;BME280;963;42.644;23.336;2023-06-10T07:03:37;93800.59;;;20.44;81.17
1472;BME280;963;42.644;23.336;2023-06-10T07:06:02;93829.03;;;20.50;81.62
1472;BME280;963;42.644;23.336;2023-06-10T07:08:28;93823.47;;;20.45;80.54
1472;BME280;963;42.644;23.336;2023-06-10T07:10:54;93820.38;;;20.59;80.92
1472;BME280;963;42.644;23.336;2023-06-10T07:13:19;93826.34;;;20.63;80.53
1472;BME280;963;42.644;23.336;2023-06-10T07:15:45;93813.94;;;20.69;79.87
1472;BME280;963;42.644;23.336;2023-06-10T07:18:10;93825.16;;;20.77;79.98
1472;BME280;963;42.644;23.336;2023-06-10T07:20:36;93822.72;;;20.82;78.58
1472;BME280;963;42.644;23.336;2023-06-10T07:23:01;93804.72;;;20.96;77.20
1472;BME280;963;42.644;23.336;2023-06-10T07:25:26;93792.63;;;21.04;77.00
1472;BME280;963;42.644;23.336;2023-06-10T07:27:52;93803.22;;;20.95;77.31
1472;BME280;963;42.644;23.336;2023-06-10T07:30:17;93802.28;;;20.88;78.01
1472;BME280;963;42.644;23.336;2023-06-10T07:32:43;93799.19;;;20.90;78.15
1472;BME280;963;42.644;23.336;2023-06-10T07:35:10;93807.81;;;21.07;78.36
1472;BME280;963;42.644;23.336;2023-06-10T07:37:36;93788.97;;;21.23;78.22
1472;BME280;963;42.644;23.336;2023-06-10T07:40:02;93803.47;;;21.35;77.57
1472;BME280;963;42.644;23.336;2023-06-10T07:42:27;93808.66;;;21.51;76.11
1472;BME280;963;42.644;23.336;2023-06-10T07:44:53;93798.78;;;21.61;75.54
1472;BME280;963;42.644;23.336;2023-06-10T07:47:18;93796.53;;;21.59;74.22
1472;BME280;963;42.644;23.336;2023-06-10T07:49:43;93800.03;;;21.69;72.54
1472;BME280;963;42.644;23.336;2023-06-10T07:52:09;93793.41;;;21.82;71.05
1472;BME280;963;42.644;23.336;2023-06-10T07:54:34;93786.38;;;21.76;70.20
1472;BME280;963;42.644;23.336;2023-06-10T07:57:00;93797.53;;;21.96;70.24
1472;BME280;963;42.644;23.336;2023-06-10T07:59:25;93795.91;;;21.99;69.70
1472;BME280;963;42.644;23.336;2023-06-10T08:01:52;93805.66;;;22.05;70.97
1472;BME280;963;42.644;23.336;2023-06-10T08:04:17;93788.09;;;22.04;70.88
1472;BME280;963;42.644;23.336;2023-06-10T08:06:43;93814.78;;;22.17;69.31
1472;BME280;963;42.644;23.336;2023-06-10T08:09:08;93806.75;;;21.95;67.37
1472;BME280;963;42.644;23.336;2023-06-10T08:11:34;93789.38;;;22.00;67.19
1472;BME280;963;42.644;23.336;2023-06-10T08:13:59;93797.66;;;22.14;68.61
1472;BME280;963;42.644;23.336;2023-06-10T08:16:24;93789.03;;;22.20;66.74
1472;BME280;963;42.644;23.336;2023-06-10T08:18:50;93776.19;;;22.05;68.17
1472;BME280;963;42.644;23.336;2023-06-10T08:21:15;93805.25;;;22.16;67.53
1472;BME280;963;42.644;23.336;2023-06-10T08:23:41;93794.09;;;22.18;65.47
1472;BME280;963;42.644;23.336;2023-06-10T08:26:06;93789.94;;;22.17;65.05
1472;BME280;963;42.644;23.336;2023-06-10T08:28:31;93802.19;;;21.83;64.91
1472;BME280;963;42.644;23.336;2023-06-10T08:30:57;93788.25;;;21.66;63.99
1472;BME280;963;42.644;23.336;2023-06-10T08:33:22;93786.69;;;21.78;64.02
1472;BME280;963;42.644;23.336;2023-06-10T08:35:48;93782.75;;;21.92;62.53
1472;BME280;963;42.644;23.336;2023-06-10T08:38:13;93769.56;;;21.97;63.43
1472;BME280;963;42.644;23.336;2023-06-10T08:40:39;93775.03;;;22.15;63.09
1472;BME280;963;42.644;23.336;2023-06-10T08:43:13;93769.72;;;22.25;62.17
1472;BME280;963;42.644;23.336;2023-06-10T08:45:42;93780.88;;;22.23;62.10
1472;BME280;963;42.644;23.336;2023-06-10T08:48:12;93773.00;;;22.29;61.94
1472;BME280;963;42.644;23.336;2023-06-10T08:50:40;93780.19;;;22.32;59.75
1472;BME280;963;42.644;23.336;2023-06-10T08:53:07;93778.94;;;22.24;58.92
1472;BME280;963;42.644;23.336;2023-06-10T08:55:37;93765.03;;;22.47;58.76
1472;BME280;963;42.644;23.336;2023-06-10T08:58:03;93756.41;;;22.52;59.15
1472;BME280;963;42.644;23.336;2023-06-10T09:00:30;93751.38;;;22.63;57.87
1472;BME280;963;42.644;23.336;2023-06-10T09:02:56;93757.97;;;22.71;58.15
1472;BME280;963;42.644;23.336;2023-06-10T09:05:22;93758.03;;;22.81;58.92
1472;BME280;963;42.644;23.336;2023-06-10T09:07:48;93752.78;;;22.77;58.76
1472;BME280;963;42.644;23.336;2023-06-10T09:10:14;93761.91;;;22.89;59.05
1472;BME280;963;42.644;23.336;2023-06-10T09:12:40;93737.47;;;22.87;58.43
1472;BME280;963;42.644;23.336;2023-06-10T09:15:06;93756.88;;;23.09;58.69
1472;BME280;963;42.644;23.336;2023-06-10T09:17:32;93746.91;;;23.10;58.26
1472;BME280;963;42.644;23.336;2023-06-10T09:19:59;93753.16;;;23.16;55.74
1472;BME280;963;42.644;23.336;2023-06-10T09:22:25;93759.72;;;23.15;55.54
1472;BME280;963;42.644;23.336;2023-06-10T09:25:01;93744.94;;;23.19;55.06
1472;BME280;963;42.644;23.336;2023-06-10T09:27:30;93756.28;;;23.14;55.52
1472;BME280;963;42.644;23.336;2023-06-10T09:29:57;93741.97;;;23.26;55.73
1472;BME280;963;42.644;23.336;2023-06-10T09:32:23;93758.66;;;23.30;54.41
1472;BME280;963;42.644;23.336;2023-06-10T09:34:49;93746.75;;;23.22;55.24
1472;BME280;963;42.644;23.336;2023-06-10T09:37:23;93754.63;;;23.35;54.26
1472;BME280;963;42.644;23.336;2023-06-10T09:40:08;93728.84;;;23.28;53.52
1472;BME280;963;42.644;23.336;2023-06-10T09:42:36;93752.69;;;23.35;54.84
1472;BME280;963;42.644;23.336;2023-06-10T09:45:06;93729.75;;;23.62;54.48
1472;BME280;963;42.644;23.336;2023-06-10T09:47:31;93737.34;;;23.63;53.42
1472;BME280;963;42.644;23.336;2023-06-10T09:49:57;93730.03;;;23.55;52.97
1472;BME280;963;42.644;23.336;2023-06-10T09:54:50;93727.66;;;23.57;52.46
1472;BME280;963;42.644;23.336;2023-06-10T09:57:16;93735.72;;;23.48;52.61
1472;BME280;963;42.644;23.336;2023-06-10T09:59:42;93724.22;;;23.65;53.56
1472;BME280;963;42.644;23.336;2023-06-10T10:02:13;93706.75;;;23.79;53.19
1472;BME280;963;42.644;23.336;2023-06-10T10:04:39;93722.06;;;23.97;52.47
1472;BME280;963;42.644;23.336;2023-06-10T10:07:04;93716.53;;;24.00;52.01
1472;BME280;963;42.644;23.336;2023-06-10T10:09:32;93707.59;;;23.94;51.87
1472;BME280;963;42.644;23.336;2023-06-10T10:11:57;93703.03;;;24.19;51.96
1472;BME280;963;42.644;23.336;2023-06-10T10:14:26;93696.72;;;24.31;50.91
1472;BME280;963;42.644;23.336;2023-06-10T10:16:55;93701.13;;;24.43;50.72
1472;BME280;963;42.644;23.336;2023-06-10T10:19:30;93697.97;;;24.54;50.09
1472;BME280;963;42.644;23.336;2023-06-10T10:22:01;93702.59;;;24.53;49.72
1472;BME280;963;42.644;23.336;2023-06-10T10:24:55;93689.19;;;24.68;50.54
1472;BME280;963;42.644;23.336;2023-06-10T10:30:09;93685.47;;;24.66;50.32
1472;BME280;963;42.644;23.336;2023-06-10T10:32:55;93690.84;;;24.89;49.13
1472;BME280;963;42.644;23.336;2023-06-10T10:35:23;93677.97;;;24.70;48.66
1472;BME280;963;42.644;23.336;2023-06-10T10:37:50;93698.72;;;25.02;50.12
1472;BME280;963;42.644;23.336;2023-06-10T10:40:17;93698.00;;;25.16;48.08
1472;BME280;963;42.644;23.336;2023-06-10T10:42:43;93689.31;;;24.98;46.78
1472;BME280;963;42.644;23.336;2023-06-10T10:45:09;93681.56;;;25.14;47.35
1472;BME280;963;42.644;23.336;2023-06-10T10:47:37;93678.75;;;24.85;48.35
1472;BME280;963;42.644;23.336;2023-06-10T10:50:14;93666.69;;;25.04;48.91
1472;BME280;963;42.644;23.336;2023-06-10T10:55:13;93666.44;;;25.17;48.42
1472;BME280;963;42.644;23.336;2023-06-10T10:57:38;93677.19;;;25.02;49.73
1472;BME280;963;42.644;23.336;2023-06-10T11:00:05;93675.81;;;25.21;48.60
1472;BME280;963;42.644;23.336;2023-06-10T11:02:40;93674.06;;;25.18;48.33
1472;BME280;963;42.644;23.336;2023-06-10T11:05:08;93677.94;;;25.17;48.69
1472;BME280;963;42.644;23.336;2023-06-10T11:07:35;93668.53;;;25.37;47.59
1472;BME280;963;42.644;23.336;2023-06-10T11:10:09;93656.63;;;25.58;48.16
1472;BME280;963;42.644;23.336;2023-06-10T11:15:08;93662.59;;;25.77;47.16
1472;BME280;963;42.644;23.336;2023-06-10T11:17:33;93644.84;;;25.41;47.55
1472;BME280;963;42.644;23.336;2023-06-10T11:19:59;93648.66;;;25.49;48.78
1472;BME280;963;42.644;23.336;2023-06-10T11:22:25;93655.31;;;25.53;49.06
1472;BME280;963;42.644;23.336;2023-06-10T11:24:51;93650.88;;;25.50;49.67
1472;BME280;963;42.644;23.336;2023-06-10T11:27:17;93640.47;;;25.88;49.15
1472;BME280;963;42.644;23.336;2023-06-10T11:32:35;93655.38;;;25.68;48.49
1472;BME280;963;42.644;23.336;2023-06-10T11:35:04;93625.78;;;26.03;46.26
1472;BME280;963;42.644;23.336;2023-06-10T11:37:29;93626.56;;;25.74;45.86
1472;BME280;963;42.644;23.336;2023-06-10T11:39:55;93623.72;;;25.98;46.57
1472;BME280;963;42.644;23.336;2023-06-10T11:42:24;93616.34;;;26.13;46.54
1472;BME280;963;42.644;23.336;2023-06-10T11:44:51;93625.66;;;26.47;45.57
1472;BME280;963;42.644;23.336;2023-06-10T11:47:18;93608.50;;;26.71;44.72
1472;BME280;963;42.644;23.336;2023-06-10T11:49:44;93625.38;;;26.66;44.58
1472;BME280;963;42.644;23.336;2023-06-10T11:52:10;93616.75;;;26.41;45.25
1472;BME280;963;42.644;23.336;2023-06-10T11:54:36;93609.19;;;26.66;45.17
1472;BME280;963;42.644;23.336;2023-06-10T11:57:02;93610.72;;;26.72;44.68
1472;BME280;963;42.644;23.336;2023-06-10T11:59:33;93624.69;;;26.91;43.67
1472;BME280;963;42.644;23.336;2023-06-10T12:01:58;93622.53;;;26.95;43.54
1472;BME280;963;42.644;23.336;2023-06-10T12:04:24;93620.44;;;27.05;43.96
1472;BME280;963;42.644;23.336;2023-06-10T12:06:52;93620.78;;;26.92;44.25
1472;BME280;963;42.644;23.336;2023-06-10T12:09:29;93606.75;;;26.88;43.83
1472;BME280;963;42.644;23.336;2023-06-10T12:11:58;93614.84;;;26.68;45.28
1472;BME280;963;42.644;23.336;2023-06-10T12:15:08;93611.16;;;26.45;45.07
1472;BME280;963;42.644;23.336;2023-06-10T12:20:03;93606.09;;;25.53;47.57
1472;BME280;963;42.644;23.336;2023-06-10T12:22:42;93610.97;;;25.99;47.26
1472;BME280;963;42.644;23.336;2023-06-10T12:25:09;93605.28;;;26.11;47.84
1472;BME280;963;42.644;23.336;2023-06-10T12:27:35;93595.66;;;26.25;47.61
1472;BME280;963;42.644;23.336;2023-06-10T12:30:03;93606.72;;;26.42;46.58
1472;BME280;963;42.644;23.336;2023-06-10T12:32:45;93613.44;;;26.52;45.75
1472;BME280;963;42.644;23.336;2023-06-10T12:35:16;93604.94;;;26.59;44.35
1472;BME280;963;42.644;23.336;2023-06-10T12:37:43;93590.44;;;26.57;43.67
1472;BME280;963;42.644;23.336;2023-06-10T12:40:26;93585.59;;;26.61;43.70
1472;BME280;963;42.644;23.336;2023-06-10T12:42:53;93573.00;;;26.17;44.22
1472;BME280;963;42.644;23.336;2023-06-10T12:45:35;93574.63;;;26.09;44.32
1472;BME280;963;42.644;23.336;2023-06-10T12:48:27;93582.47;;;25.92;45.86
1472;BME280;963;42.644;23.336;2023-06-10T12:50:56;93579.84;;;25.98;44.19
1472;BME280;963;42.644;23.336;2023-06-10T12:53:22;93583.22;;;25.93;43.24
1472;BME280;963;42.644;23.336;2023-06-10T12:55:54;93591.56;;;25.95;44.00
1472;BME280;963;42.644;23.336;2023-06-10T12:58:20;93597.69;;;25.31;42.66
1472;BME280;963;42.644;23.336;2023-06-10T13:00:47;93592.63;;;25.53;43.05
1472;BME280;963;42.644;23.336;2023-06-10T13:03:14;93597.00;;;25.65;42.88
1472;BME280;963;42.644;23.336;2023-06-10T13:05:40;93581.88;;;25.53;43.73
1472;BME280;963;42.644;23.336;2023-06-10T13:08:06;93586.59;;;25.73;44.17
1472;BME280;963;42.644;23.336;2023-06-10T13:10:32;93589.66;;;25.80;44.00
1472;BME280;963;42.644;23.336;2023-06-10T13:12:58;93589.38;;;25.78;42.30
1472;BME280;963;42.644;23.336;2023-06-10T13:15:24;93585.31;;;25.39;42.35
1472;BME280;963;42.644;23.336;2023-06-10T13:17:51;93583.25;;;25.48;42.72
1472;BME280;963;42.644;23.336;2023-06-10T13:20:17;93588.53;;;25.58;43.11
1472;BME280;963;42.644;23.336;2023-06-10T13:22:43;93597.75;;;25.66;43.95
1472;BME280;963;42.644;23.336;2023-06-10T13:25:08;93583.09;;;25.67;44.29
1472;BME280;963;42.644;23.336;2023-06-10T13:27:35;93601.09;;;25.75;43.56
1472;BME280;963;42.644;23.336;2023-06-10T13:30:04;93591.25;;;25.72;42.24
1472;BME280;963;42.644;23.336;2023-06-10T13:32:30;93605.75;;;25.75;42.27
1472;BME280;963;42.644;23.336;2023-06-10T13:34:56;93603.97;;;25.57;44.85
1472;BME280;963;42.644;23.336;2023-06-10T13:37:22;93615.38;;;25.52;47.25
1472;BME280;963;42.644;23.336;2023-06-10T13:39:47;93608.72;;;25.33;49.35